createdAt,value
2022-10-12T00:02:25.368Z,101177.00
2022-10-12T00:04:52.306Z,101177.00
2022-10-12T00:07:19.310Z,101182.00
2022-10-12T00:09:46.227Z,101182.00
2022-10-12T00:12:13.204Z,101174.00
2022-10-12T00:14:40.153Z,101187.00
2022-10-12T00:17:07.054Z,101178.00
2022-10-12T00:19:34.084Z,101187.00
2022-10-12T00:22:01.090Z,101186.00
2022-10-12T00:24:28.138Z,101195.00
2022-10-12T00:26:55.064Z,101190.00
2022-10-12T00:29:21.978Z,101188.00
2022-10-12T00:31:48.852Z,101191.00
2022-10-12T00:34:16.099Z,101186.00
2022-10-12T00:36:43.311Z,101193.00
2022-10-12T00:39:11.027Z,101186.00
2022-10-12T00:41:42.979Z,101191.00
2022-10-12T00:44:38.993Z,101203.00
2022-10-12T00:47:25.838Z,101205.00
2022-10-12T00:50:20.805Z,101199.00
2022-10-12T00:53:09.713Z,101194.00
2022-10-12T00:55:48.686Z,101194.00
2022-10-12T00:58:16.370Z,101200.00
2022-10-12T01:00:44.076Z,101198.00
2022-10-12T01:03:15.416Z,101206.00
2022-10-12T01:05:42.616Z,101200.00
2022-10-12T01:08:09.717Z,101194.00
2022-10-12T01:10:36.592Z,101204.00
2022-10-12T01:13:04.059Z,101213.00
2022-10-12T01:15:39.990Z,101202.00
2022-10-12T01:18:30.016Z,101195.00
2022-10-12T01:21:21.020Z,101202.00
2022-10-12T01:24:31.320Z,101202.00
2022-10-12T01:27:09.555Z,101201.00
2022-10-12T01:30:33.471Z,101209.00
2022-10-12T01:33:39.562Z,101191.00
2022-10-12T01:36:25.879Z,101188.00
2022-10-12T01:39:10.883Z,101201.00
2022-10-12T01:41:50.752Z,101195.00
2022-10-12T01:44:23.258Z,101190.00
2022-10-12T01:46:52.751Z,101193.00
2022-10-12T01:49:34.350Z,101203.00
2022-10-12T01:52:10.371Z,101204.00
2022-10-12T01:55:04.219Z,101197.00
2022-10-12T01:58:11.837Z,101194.00
2022-10-12T02:01:00.475Z,101201.00
2022-10-12T02:04:09.898Z,101199.00
2022-10-12T02:07:23.968Z,101203.00
2022-10-12T02:09:54.252Z,101200.00
2022-10-12T02:12:25.552Z,101201.00
2022-10-12T02:15:03.634Z,101201.00
2022-10-12T02:17:32.932Z,101201.00
2022-10-12T02:20:03.497Z,101203.00
2022-10-12T02:22:37.273Z,101202.00
2022-10-12T02:25:11.401Z,101193.00
2022-10-12T02:27:44.612Z,101191.00
2022-10-12T02:30:12.476Z,101187.00
2022-10-12T02:32:54.190Z,101194.00
2022-10-12T02:35:38.536Z,101182.00
2022-10-12T02:38:38.381Z,101183.00
2022-10-12T02:41:38.405Z,101194.00
2022-10-12T02:44:12.154Z,101187.00
2022-10-12T02:46:41.425Z,101185.00
2022-10-12T02:49:11.710Z,101193.00
2022-10-12T02:51:40.989Z,101191.00
2022-10-12T02:54:08.464Z,101189.00
2022-10-12T02:56:42.847Z,101183.00
2022-10-12T02:59:09.784Z,101186.00
2022-10-12T03:01:36.768Z,101188.00
2022-10-12T03:04:03.928Z,101186.00
2022-10-12T03:06:30.888Z,101187.00
2022-10-12T03:08:57.850Z,101185.00
2022-10-12T03:11:25.077Z,101185.00
2022-10-12T03:13:56.255Z,101191.00
2022-10-12T03:16:24.604Z,101180.00
2022-10-12T03:18:52.082Z,101178.00
2022-10-12T03:21:19.047Z,101187.00
2022-10-12T03:23:45.978Z,101180.00
2022-10-12T03:26:12.902Z,101184.00
2022-10-12T03:28:39.891Z,101199.00
2022-10-12T03:31:06.807Z,101186.00
2022-10-12T03:33:33.692Z,101190.00
2022-10-12T03:36:00.578Z,101194.00
2022-10-12T03:38:27.495Z,101195.00
2022-10-12T03:40:54.416Z,101199.00
2022-10-12T03:43:21.400Z,101195.00
2022-10-12T03:45:48.327Z,101193.00
2022-10-12T03:48:15.431Z,101195.00
2022-10-12T03:50:42.330Z,101192.00
2022-10-12T03:53:09.863Z,101194.00
2022-10-12T03:55:36.969Z,101190.00
2022-10-12T03:58:03.895Z,101196.00
2022-10-12T04:00:30.890Z,101195.00
2022-10-12T04:02:58.415Z,101198.00
2022-10-12T04:05:25.445Z,101199.00
2022-10-12T04:07:52.404Z,101202.00
2022-10-12T04:10:19.468Z,101209.00
2022-10-12T04:12:46.840Z,101209.00
2022-10-12T04:15:14.870Z,101204.00
2022-10-12T04:17:41.960Z,101217.00
2022-10-12T04:20:11.404Z,101222.00
2022-10-12T04:22:39.268Z,101229.00
2022-10-12T04:25:06.925Z,101224.00
2022-10-12T04:27:34.076Z,101212.00
2022-10-12T04:30:00.981Z,101229.00
2022-10-12T04:32:27.924Z,101229.00
2022-10-12T04:34:54.798Z,101241.00
2022-10-12T04:37:21.701Z,101232.00
2022-10-12T04:39:48.696Z,101230.00
2022-10-12T04:42:15.585Z,101235.00
2022-10-12T04:44:42.485Z,101240.00
2022-10-12T04:47:09.420Z,101235.00
2022-10-12T04:49:36.355Z,101243.00
2022-10-12T04:52:03.454Z,101244.00
2022-10-12T04:54:32.725Z,101238.00
2022-10-12T04:56:59.748Z,101243.00
2022-10-12T04:59:26.726Z,101244.00
2022-10-12T05:01:54.530Z,101249.00
2022-10-12T05:04:21.685Z,101246.00
2022-10-12T05:06:48.640Z,101258.00
2022-10-12T05:09:17.113Z,101250.00
2022-10-12T05:11:44.675Z,101255.00
2022-10-12T05:14:11.807Z,101261.00
2022-10-12T05:16:38.752Z,101268.00
2022-10-12T05:19:05.840Z,101268.00
2022-10-12T05:21:34.511Z,101265.00
2022-10-12T05:24:01.496Z,101270.00
2022-10-12T05:26:28.388Z,101272.00
2022-10-12T05:28:55.441Z,101263.00
2022-10-12T05:31:22.392Z,101265.00
2022-10-12T05:33:49.339Z,101269.00
2022-10-12T05:36:16.264Z,101267.00
2022-10-12T05:38:43.170Z,101268.00
2022-10-12T05:41:10.073Z,101263.00
2022-10-12T05:43:37.017Z,101263.00
2022-10-12T05:46:08.257Z,101257.00
2022-10-12T05:48:38.036Z,101248.00
2022-10-12T05:51:05.097Z,101258.00
2022-10-12T05:53:32.057Z,101257.00
2022-10-12T05:56:01.462Z,101256.00
2022-10-12T05:58:30.441Z,101261.00
2022-10-12T06:01:07.561Z,101261.00
2022-10-12T06:03:35.276Z,101260.00
2022-10-12T06:06:04.128Z,101268.00
2022-10-12T06:08:33.096Z,101277.00
2022-10-12T06:11:00.057Z,101266.00
2022-10-12T06:13:26.975Z,101276.00
2022-10-12T06:15:54.052Z,101275.00
2022-10-12T06:18:21.188Z,101273.00
2022-10-12T06:21:21.055Z,101271.00
2022-10-12T06:23:41.486Z,101277.00
2022-10-12T06:26:08.424Z,101276.00
2022-10-12T06:28:35.399Z,101280.00
2022-10-12T06:31:02.434Z,101279.00
2022-10-12T06:33:29.401Z,101279.00
2022-10-12T06:35:56.939Z,101289.00
2022-10-12T06:38:24.336Z,101290.00
2022-10-12T06:40:53.284Z,101287.00
2022-10-12T06:43:22.676Z,101289.00
2022-10-12T06:45:49.982Z,101295.00
2022-10-12T06:48:18.787Z,101288.00
2022-10-12T06:50:47.796Z,101297.00
2022-10-12T06:53:14.758Z,101296.00
2022-10-12T06:55:41.737Z,101293.00
2022-10-12T06:58:08.727Z,101291.00
2022-10-12T07:00:36.383Z,101292.00
2022-10-12T07:03:03.944Z,101289.00
2022-10-12T07:05:31.287Z,101294.00
2022-10-12T07:07:58.323Z,101292.00
2022-10-12T07:10:25.463Z,101293.00
2022-10-12T07:12:52.377Z,101299.00
2022-10-12T07:15:19.532Z,101298.00
2022-10-12T07:17:46.441Z,101299.00
2022-10-12T07:20:13.405Z,101296.00
2022-10-12T07:22:40.359Z,101299.00
2022-10-12T07:25:07.991Z,101296.00
2022-10-12T07:27:35.068Z,101304.00
2022-10-12T07:30:02.298Z,101301.00
2022-10-12T07:32:29.200Z,101311.00
2022-10-12T07:34:56.096Z,101307.00
2022-10-12T07:37:23.495Z,101298.00
2022-10-12T07:39:50.481Z,101306.00
2022-10-12T07:42:19.608Z,101305.00
2022-10-12T07:44:46.762Z,101303.00
2022-10-12T07:47:13.704Z,101312.00
2022-10-12T07:49:40.600Z,101305.00
2022-10-12T07:52:07.533Z,101314.00
2022-10-12T07:54:34.541Z,101312.00
2022-10-12T07:57:01.428Z,101304.00
2022-10-12T07:59:28.444Z,101312.00
2022-10-12T08:01:56.867Z,101312.00
2022-10-12T08:04:23.833Z,101310.00
2022-10-12T08:06:50.696Z,101319.00
2022-10-12T08:09:17.614Z,101321.00
2022-10-12T08:11:44.730Z,101322.00
2022-10-12T08:14:16.984Z,101323.00
2022-10-12T08:16:47.015Z,101316.00
2022-10-12T08:19:14.682Z,101319.00
2022-10-12T08:21:42.719Z,101316.00
2022-10-12T08:24:13.151Z,101322.00
2022-10-12T08:26:40.156Z,101322.00
2022-10-12T08:29:08.533Z,101325.00
2022-10-12T08:31:35.991Z,101330.00
2022-10-12T08:34:03.877Z,101324.00
2022-10-12T08:36:30.906Z,101331.00
2022-10-12T08:38:58.089Z,101326.00
2022-10-12T08:41:42.727Z,101345.00
2022-10-12T08:44:52.439Z,101336.00
2022-10-12T08:47:47.160Z,101341.00
2022-10-12T08:50:35.825Z,101339.00
2022-10-12T08:53:09.622Z,101346.00
2022-10-12T08:55:40.878Z,101344.00
2022-10-12T08:58:20.669Z,101345.00
2022-10-12T09:01:07.327Z,101346.00
2022-10-12T09:03:51.707Z,101343.00
2022-10-12T09:06:55.146Z,101337.00
2022-10-12T09:09:43.148Z,101342.00
2022-10-12T09:12:42.454Z,101342.00
2022-10-12T09:15:23.082Z,101346.00
2022-10-12T09:17:58.687Z,101350.00
2022-10-12T09:20:48.574Z,101341.00
2022-10-12T09:23:40.970Z,101336.00
2022-10-12T09:26:26.215Z,101334.00
2022-10-12T09:28:58.316Z,101337.00
2022-10-12T09:31:51.923Z,101339.00
2022-10-12T09:34:19.713Z,101342.00
2022-10-12T09:36:46.859Z,101336.00
2022-10-12T09:39:23.518Z,101336.00
2022-10-12T09:41:54.764Z,101341.00
2022-10-12T09:44:55.153Z,101338.00
2022-10-12T09:47:24.604Z,101345.00
2022-10-12T09:49:53.832Z,101357.00
2022-10-12T09:52:45.079Z,101356.00
2022-10-12T09:55:15.542Z,101346.00
2022-10-12T09:57:54.542Z,101351.00
2022-10-12T10:00:33.283Z,101363.00
2022-10-12T10:03:02.418Z,101351.00
2022-10-12T10:05:38.620Z,101355.00
2022-10-12T10:08:19.352Z,101361.00
2022-10-12T10:10:55.705Z,101359.00
2022-10-12T10:13:28.847Z,101349.00
2022-10-12T10:16:04.197Z,101357.00
2022-10-12T10:18:37.207Z,101361.00
2022-10-12T10:21:08.726Z,101355.00
2022-10-12T10:23:57.979Z,101360.00
2022-10-12T10:26:28.402Z,101365.00
2022-10-12T10:29:38.974Z,101366.00
2022-10-12T10:32:26.305Z,101358.00
2022-10-12T10:35:22.134Z,101363.00
2022-10-12T10:37:56.308Z,101362.00
2022-10-12T10:40:33.218Z,101369.00
2022-10-12T10:43:16.060Z,101368.00
2022-10-12T10:46:02.073Z,101352.00
2022-10-12T10:48:39.914Z,101360.00
2022-10-12T10:51:07.597Z,101360.00
2022-10-12T10:53:54.778Z,101363.00
2022-10-12T10:56:27.215Z,101350.00
2022-10-12T10:59:21.379Z,101363.00
2022-10-12T11:01:55.529Z,101361.00
2022-10-12T11:04:39.624Z,101361.00
2022-10-12T11:07:39.518Z,101364.00
2022-10-12T11:10:29.451Z,101363.00
2022-10-12T11:13:20.178Z,101372.00
2022-10-12T11:16:03.746Z,101360.00
2022-10-12T11:18:44.952Z,101360.00
2022-10-12T11:22:03.330Z,101360.00
2022-10-12T11:24:40.644Z,101357.00
2022-10-12T11:27:32.688Z,101348.00
2022-10-12T11:30:10.059Z,101363.00
2022-10-12T11:33:07.286Z,101356.00
2022-10-12T11:35:43.688Z,101346.00
2022-10-12T11:38:42.980Z,101356.00
2022-10-12T11:41:44.949Z,101345.00
2022-10-12T11:44:47.593Z,101330.00
2022-10-12T11:47:47.338Z,101323.00
2022-10-12T11:50:35.575Z,101338.00
2022-10-12T11:53:14.414Z,101341.00
2022-10-12T11:55:59.414Z,101340.00
2022-10-12T11:58:59.319Z,101337.00
2022-10-12T12:01:47.004Z,101343.00
2022-10-12T12:04:47.410Z,101339.00
2022-10-12T12:07:23.358Z,101341.00
2022-10-12T12:09:51.884Z,101334.00
2022-10-12T12:12:27.784Z,101341.00
2022-10-12T12:14:54.674Z,101347.00
2022-10-12T12:17:26.910Z,101349.00
2022-10-12T12:20:22.958Z,101357.00
2022-10-12T12:22:54.561Z,101364.00
2022-10-12T12:25:31.488Z,101347.00
2022-10-12T12:28:24.698Z,101355.00
2022-10-12T12:31:02.807Z,101335.00
2022-10-12T12:33:41.987Z,101360.00
2022-10-12T12:36:32.165Z,101361.00
2022-10-12T12:39:00.365Z,101356.00
2022-10-12T12:42:01.597Z,101358.00
2022-10-12T12:44:37.300Z,101355.00
2022-10-12T12:47:08.556Z,101356.00
2022-10-12T12:50:01.126Z,101362.00
2022-10-12T12:52:37.999Z,101351.00
2022-10-12T12:55:25.808Z,101349.00
2022-10-12T12:58:22.163Z,101350.00
2022-10-12T13:01:22.734Z,101341.00
2022-10-12T13:04:11.529Z,101346.00
2022-10-12T13:07:06.769Z,101341.00
2022-10-12T13:10:25.188Z,101341.00
2022-10-12T13:13:38.088Z,101346.00
2022-10-12T13:17:30.089Z,101310.00
2022-10-12T13:31:32.524Z,101339.00
2022-10-12T13:34:21.994Z,101329.00
2022-10-12T13:37:01.416Z,101324.00
2022-10-12T13:39:30.026Z,101338.00
2022-10-12T13:42:01.496Z,101331.00
2022-10-12T13:44:31.444Z,101337.00
2022-10-12T13:47:02.279Z,101329.00
2022-10-12T13:49:42.492Z,101339.00
2022-10-12T13:52:12.352Z,101333.00
2022-10-12T13:54:47.353Z,101342.00
2022-10-12T13:57:41.329Z,101331.00
2022-10-12T14:00:24.963Z,101344.00
2022-10-12T14:03:08.861Z,101325.00
2022-10-12T14:05:45.597Z,101334.00
2022-10-12T14:08:19.601Z,101339.00
2022-10-12T14:10:46.687Z,101333.00
2022-10-12T14:13:33.061Z,101337.00
2022-10-12T14:16:04.534Z,101338.00
2022-10-12T14:18:39.444Z,101334.00
2022-10-12T14:21:33.340Z,101340.00
2022-10-12T14:24:10.373Z,101332.00
2022-10-12T14:26:43.586Z,101339.00
2022-10-12T14:29:29.387Z,101324.00
2022-10-12T14:32:00.272Z,101323.00
2022-10-12T14:34:27.152Z,101330.00
2022-10-12T14:37:02.802Z,101327.00
2022-10-12T14:39:30.482Z,101325.00
2022-10-12T14:42:19.298Z,101323.00
2022-10-12T14:44:46.230Z,101327.00
2022-10-12T14:47:25.238Z,101308.00
2022-10-12T14:49:57.059Z,101322.00
2022-10-12T14:52:32.923Z,101319.00
2022-10-12T14:55:00.749Z,101305.00
2022-10-12T14:57:30.952Z,101318.00
2022-10-12T14:59:59.197Z,101317.00
2022-10-12T15:02:29.635Z,101309.00
2022-10-12T15:04:58.204Z,101320.00
2022-10-12T15:07:33.125Z,101320.00
2022-10-12T15:10:01.069Z,101308.00
2022-10-12T15:12:30.540Z,101302.00
2022-10-12T15:15:00.980Z,101316.00
2022-10-12T15:17:28.194Z,101310.00
2022-10-12T15:19:55.335Z,101314.00
2022-10-12T15:22:26.952Z,101313.00
2022-10-12T15:24:55.599Z,101317.00
2022-10-12T15:27:22.753Z,101310.00
2022-10-12T15:29:49.972Z,101314.00
2022-10-12T15:32:18.833Z,101307.00
2022-10-12T15:34:45.913Z,101304.00
2022-10-12T15:37:12.994Z,101315.00
2022-10-12T15:39:40.153Z,101306.00
2022-10-12T15:42:07.078Z,101305.00
2022-10-12T15:44:41.267Z,101306.00
2022-10-12T15:47:11.148Z,101308.00
2022-10-12T15:49:38.612Z,101310.00
2022-10-12T15:52:11.190Z,101305.00
2022-10-12T15:54:38.110Z,101304.00
2022-10-12T15:57:06.928Z,101308.00
2022-10-12T15:59:34.393Z,101309.00
2022-10-12T16:02:01.380Z,101315.00
2022-10-12T16:04:28.296Z,101313.00
2022-10-12T16:06:55.264Z,101263.00
2022-10-12T16:09:22.167Z,101315.00
2022-10-12T16:11:50.020Z,101319.00
2022-10-12T16:14:17.302Z,101315.00
2022-10-12T16:16:44.250Z,101311.00
2022-10-12T16:19:11.276Z,101308.00
2022-10-12T16:21:38.258Z,101310.00
2022-10-12T16:24:05.517Z,101316.00
2022-10-12T16:26:32.414Z,101309.00
2022-10-12T16:28:59.437Z,101306.00
2022-10-12T16:31:26.469Z,101301.00
2022-10-12T16:33:53.534Z,101306.00
2022-10-12T16:36:20.558Z,101304.00
2022-10-12T16:38:47.475Z,101305.00
2022-10-12T16:41:17.075Z,101304.00
2022-10-12T16:43:44.225Z,101305.00
2022-10-12T16:46:11.453Z,101305.00
2022-10-12T16:48:38.477Z,101311.00
2022-10-12T16:51:12.769Z,101309.00
2022-10-12T16:53:42.349Z,101315.00
2022-10-12T16:56:10.053Z,101304.00
2022-10-12T16:58:37.024Z,101309.00
2022-10-12T17:01:12.426Z,101310.00
2022-10-12T17:03:40.350Z,101316.00
2022-10-12T17:06:07.944Z,101315.00
2022-10-12T17:08:36.205Z,101298.00
2022-10-12T17:11:10.177Z,101321.00
2022-10-12T17:13:39.672Z,101328.00
2022-10-12T17:16:26.980Z,101318.00
2022-10-12T17:18:58.953Z,101325.00
2022-10-12T17:21:28.568Z,101316.00
2022-10-12T17:23:59.424Z,101320.00
2022-10-12T17:26:26.681Z,101320.00
2022-10-12T17:28:53.742Z,101320.00
2022-10-12T17:31:21.018Z,101317.00
2022-10-12T17:33:50.742Z,101322.00
2022-10-12T17:36:24.401Z,101321.00
2022-10-12T17:38:57.638Z,101323.00
2022-10-12T17:41:25.750Z,101333.00
2022-10-12T17:43:52.786Z,101330.00
2022-10-12T17:46:22.537Z,101323.00
2022-10-12T17:48:49.969Z,101331.00
2022-10-12T17:51:18.272Z,101329.00
2022-10-12T17:53:45.437Z,101346.00
2022-10-12T17:56:14.929Z,101333.00
2022-10-12T17:58:42.732Z,101321.00
2022-10-12T18:01:18.539Z,101331.00
2022-10-12T18:03:47.305Z,101322.00
2022-10-12T18:06:18.835Z,101327.00
2022-10-12T18:08:46.116Z,101323.00
2022-10-12T18:11:14.319Z,101330.00
2022-10-12T18:13:47.269Z,101330.00
2022-10-12T18:16:18.116Z,101326.00
2022-10-12T18:18:45.479Z,101329.00
2022-10-12T18:21:14.075Z,101320.00
2022-10-12T18:23:41.220Z,101321.00
2022-10-12T18:26:11.248Z,101319.00
2022-10-12T18:28:38.556Z,101317.00
2022-10-12T18:31:06.746Z,101319.00
2022-10-12T18:33:34.234Z,101319.00
2022-10-12T18:36:06.905Z,101319.00
2022-10-12T18:38:34.480Z,101309.00
2022-10-12T18:41:10.197Z,101320.00
2022-10-12T18:43:38.372Z,101306.00
2022-10-12T18:46:11.214Z,101315.00
2022-10-12T18:48:38.653Z,101307.00
2022-10-12T18:51:20.221Z,101309.00
2022-10-12T18:53:47.919Z,101309.00
2022-10-12T18:56:15.107Z,101303.00
2022-10-12T18:58:42.221Z,101306.00
2022-10-12T19:01:22.451Z,101302.00
2022-10-12T19:03:49.850Z,101302.00
2022-10-12T19:06:22.480Z,101305.00
2022-10-12T19:08:50.603Z,101304.00
2022-10-12T19:11:21.230Z,101268.00
2022-10-12T19:13:58.984Z,101298.00
2022-10-12T19:16:26.789Z,101291.00
2022-10-12T19:19:00.730Z,101304.00
2022-10-12T19:21:28.232Z,101295.00
2022-10-12T19:23:56.219Z,101297.00
2022-10-12T19:26:26.912Z,101301.00
2022-10-12T19:28:56.724Z,101298.00
2022-10-12T19:31:28.293Z,101316.00
2022-10-12T19:34:01.406Z,101289.00
2022-10-12T19:36:28.892Z,101286.00
2022-10-12T19:38:57.984Z,101285.00
2022-10-12T19:41:27.699Z,101286.00
2022-10-12T19:43:55.047Z,101288.00
2022-10-12T19:46:22.128Z,101285.00
2022-10-12T19:48:52.968Z,101285.00
2022-10-12T19:51:23.110Z,101280.00
2022-10-12T19:53:54.918Z,101285.00
2022-10-12T19:56:26.078Z,101283.00
2022-10-12T19:58:57.744Z,101289.00
2022-10-12T20:01:34.999Z,101282.00
2022-10-12T20:04:08.302Z,101277.00
2022-10-12T20:06:35.850Z,101277.00
2022-10-12T20:09:04.956Z,101285.00
2022-10-12T20:11:32.073Z,101276.00
2022-10-12T20:13:59.321Z,101282.00
2022-10-12T20:16:30.076Z,101282.00
2022-10-12T20:19:00.978Z,101276.00
2022-10-12T20:21:28.286Z,101277.00
2022-10-12T20:23:57.363Z,101288.00
2022-10-12T20:26:26.198Z,101284.00
2022-10-12T20:28:54.764Z,101293.00
2022-10-12T20:31:24.467Z,101288.00
2022-10-12T20:33:53.111Z,101286.00
2022-10-12T20:36:29.218Z,101288.00
2022-10-12T20:38:58.650Z,101279.00
2022-10-12T20:41:27.517Z,101282.00
2022-10-12T20:43:59.676Z,101283.00
2022-10-12T20:46:28.874Z,101282.00
2022-10-12T20:48:59.514Z,101288.00
2022-10-12T20:51:35.746Z,101283.00
2022-10-12T20:54:05.695Z,101284.00
2022-10-12T20:56:33.806Z,101289.00
2022-10-12T20:59:01.771Z,101280.00
2022-10-12T21:01:29.263Z,101275.00
2022-10-12T21:03:56.663Z,101280.00
2022-10-12T21:06:24.411Z,101282.00
2022-10-12T21:08:54.372Z,101288.00
2022-10-12T21:11:22.354Z,101270.00
2022-10-12T21:13:50.723Z,101283.00
2022-10-12T21:16:17.742Z,101285.00
2022-10-12T21:18:44.658Z,101284.00
2022-10-12T21:21:18.505Z,101289.00
2022-10-12T21:23:59.438Z,101266.00
2022-10-12T21:26:29.720Z,101284.00
2022-10-12T21:28:58.356Z,101290.00
2022-10-12T21:31:31.816Z,101287.00
2022-10-12T21:34:04.988Z,101286.00
2022-10-12T21:36:35.476Z,101287.00
2022-10-12T21:39:02.892Z,101288.00
2022-10-12T21:41:30.608Z,101284.00
2022-10-12T21:43:58.488Z,101286.00
2022-10-12T21:46:32.525Z,101280.00
2022-10-12T21:49:00.914Z,101288.00
2022-10-12T21:51:30.581Z,101285.00
2022-10-12T21:53:58.149Z,101291.00
2022-10-12T21:56:29.107Z,101289.00
2022-10-12T21:58:59.285Z,101288.00
2022-10-12T22:01:30.828Z,101290.00
2022-10-12T22:04:00.155Z,101279.00
2022-10-12T22:06:29.317Z,101278.00
2022-10-12T22:09:06.162Z,101279.00
2022-10-12T22:11:35.568Z,101280.00
2022-10-12T22:14:09.256Z,101274.00
2022-10-12T22:16:37.006Z,101273.00
2022-10-12T22:19:07.477Z,101271.00
2022-10-12T22:21:36.425Z,101283.00
2022-10-12T22:24:03.799Z,101279.00
2022-10-12T22:26:30.981Z,101279.00
2022-10-12T22:29:00.385Z,101286.00
2022-10-12T22:31:28.077Z,101275.00
2022-10-12T22:33:55.995Z,101271.00
2022-10-12T22:36:23.261Z,101269.00
2022-10-12T22:38:50.415Z,101263.00
2022-10-12T22:41:20.800Z,101273.00
2022-10-12T22:43:50.484Z,101276.00
2022-10-12T22:46:19.564Z,101283.00
2022-10-12T22:48:46.976Z,101245.00
2022-10-12T22:51:25.771Z,101271.00
2022-10-12T22:53:52.684Z,101271.00
2022-10-12T22:56:19.840Z,101263.00
2022-10-12T22:58:48.906Z,101257.00
2022-10-12T23:01:17.812Z,101263.00
2022-10-12T23:03:45.920Z,101269.00
2022-10-12T23:06:14.877Z,101252.00
2022-10-12T23:08:42.886Z,101251.00
2022-10-12T23:11:20.786Z,101264.00
2022-10-12T23:13:48.188Z,101253.00
2022-10-12T23:16:20.289Z,101254.00
2022-10-12T23:18:47.766Z,101261.00
2022-10-12T23:21:17.975Z,101257.00
2022-10-12T23:23:46.159Z,101250.00
2022-10-12T23:26:14.460Z,101255.00
2022-10-12T23:28:41.639Z,101255.00
2022-10-12T23:31:11.799Z,101253.00
2022-10-12T23:33:39.091Z,101259.00
2022-10-12T23:36:10.928Z,101261.00
2022-10-12T23:38:40.572Z,101239.00
2022-10-12T23:41:08.945Z,101269.00
2022-10-12T23:43:36.338Z,101260.00
2022-10-12T23:46:05.714Z,101280.00
2022-10-12T23:48:33.686Z,101241.00
2022-10-12T23:51:00.938Z,101268.00
2022-10-12T23:53:27.921Z,101267.00
2022-10-12T23:55:54.884Z,101263.00
2022-10-12T23:58:21.829Z,101267.00
